• Join FlightAware (Why Join?)
  • Login
  • US Flag 
09:17AM EDT


 

Airport Tracker/Info


-or-


 

Live Flight TrackerFlight Track Log ✈ DAL6032 ✈ 13-Jun-2013 ✈ KIND - KDTW

Flight Track Log - Related Links

Times and Time Zones

All times are in EDT time to prevent confusion due to time zone crossing. See the DAL6032 flight status page for this flight to view local times or setup timezone preferences in your user account.

Time Position Orientation Groundspeed Altitude Reporting Facility
EDT Latitude Longitude Course Direction KTS MPH feet Rate Location/Type
08:29AM 39.7333 -86.2833 12° North 156 180 1,600  Level Indianapolis TRACON
08:30AM 39.7667 -86.2500 38° Northeast 200 230 3,500 1,800 Climbing Indianapolis TRACON
08:31AM 40.0138 -86.2869 18° North  Level FlightAware Approximate
08:31AM 39.8408 -86.2503 360° North 229 264 5,400  Level Indianapolis Center
08:32AM 40.1091 -86.2455 21° North  Level FlightAware Approximate
08:32AM 39.9111 -86.2397 North 253 291 7,800  Level Indianapolis Center
08:33AM 40.2027 -86.1982 27° Northeast  Level FlightAware Approximate
08:33AM 39.9792 -86.2050 21° North 272 313 10,300  Level Indianapolis Center
08:34AM 40.2962 -86.1535 12° North  Level FlightAware Approximate
08:34AM 40.0422 -86.1408 38° Northeast 287 330 12,100  Level Indianapolis Center
08:35AM 40.1108 -86.0722 37° Northeast 307 353 13,400 1,260 Climbing Indianapolis Center
08:36AM 40.1842 -85.9992 37° Northeast 329 379 14,800 1,380 Climbing Indianapolis Center
08:37AM 40.2594 -85.9244 37° Northeast 337 388 16,300 1,620 Climbing Chicago Center
08:38AM 40.3514 -85.8314 38° Northeast 349 402 18,200 1,800 Climbing Indianapolis Center
08:39AM 40.4269 -85.7544 38° Northeast 345 397 20,100 1,320 Climbing Indianapolis Center
08:40AM 40.5022 -85.6792 37° Northeast 339 390 21,000 420 Climbing Chicago Center
08:41AM 40.5867 -85.5928 38° Northeast 373 429 21,000  Level Chicago Center
08:42AM 40.6856 -85.4933 37° Northeast 407 468 21,000  Level Chicago Center
08:43AM 40.7783 -85.3933 39° Northeast 425 489 21,000  Level Chicago Center
08:44AM 40.8744 -85.2942 38° Northeast 436 502 21,000  Level Chicago Center
08:45AM 40.9692 -85.1967 38° Northeast 436 502 21,000  Level Chicago Center
08:46AM 41.0628 -85.0975 39° Northeast 433 498 21,000  Level Chicago Center
08:47AM 41.1731 -84.9778 39° Northeast 432 497 21,000  Level Chicago Center
08:48AM 41.2661 -84.8803 38° Northeast 430 495 21,000  Level Chicago Center
08:49AM 41.3578 -84.7806 39° Northeast 430 495 21,000  Level Chicago Center
08:50AM 41.4486 -84.6833 39° Northeast 419 482 21,000 -240 Level Chicago Center
08:51AM 41.5247 -84.6000 39° Northeast 362 417 20,600 -660 Descending Chicago Center
08:52AM 41.6006 -84.5183 39° Northeast 354 407 19,700 -1,020 Descending Chicago Center
08:53AM 41.6350 -84.4814 39° Northeast 352 405 19,200 -1,800 Descending Cleveland Center
08:54AM 41.6944 -84.3906 49° Northeast 329 379 17,300 -1,860 Descending Cleveland Center
08:55AM 41.7356 -84.2786 64° Northeast 324 373 15,700 -1,800 Descending Cleveland Center
08:56AM 41.7767 -84.1725 63° Northeast 315 362 13,800 -1,740 Descending Cleveland Center
08:57AM 41.8128 -84.0797 62° Northeast 307 353 12,200 -960 Descending Cleveland Center
08:58AM 41.8653 -83.9961 50° Northeast 254 292 11,900 -900 Descending Cleveland Center
08:59AM 41.9108 -83.9400 43° Northeast 243 280 10,600 -1,380 Descending Cleveland Center
09:00AM 41.9603 -83.8839 40° Northeast 240 276 9,300 -1,320 Descending Cleveland Center
09:01AM 42.0142 -83.8253 39° Northeast 231 266 8,000 -1,080 Descending Cleveland Center
09:02AM 42.0325 -83.7675 67° East 196 226 7,100 -540 Descending Cleveland Center
09:03AM 41.9775 -83.7228 149° Southeast 141 162 6,900 -840 Descending Cleveland Center
09:04AM 41.9244 -83.6756 146° Southeast 169 194 5,500 -960 Descending Cleveland Center
09:05AM 41.9056 -83.6047 110° East 168 193 5,000 -240 Descending Cleveland Center
09:06AM 41.9375 -83.5783 32° Northeast 158 182 5,100  Climbing Cleveland Center
09:07AM 41.9800 -83.5469 29° Northeast 154 177 5,100 -180 Level Cleveland Center
09:08AM 42.0183 -83.5208 27° Northeast 157 181 4,800 -600 Descending Cleveland Center
09:09AM 42.0564 -83.4944 27° Northeast 145 167 3,900 -840 Descending Cleveland Center
09:10AM 42.0947 -83.4656 29° Northeast 145 167 3,100 -720 Descending Cleveland Center